Time;durP1;ratioP1;P1;durP2;ratioP2;P2;SDS_P1;SDS_P2;PMS_P1;PMS_P2;Temp;Humidity;BMP_temperature;BMP_pressure;BME280_temperature;BME280_humidity;BME280_pressure;Samples;Min_cycle;Max_cycle;Signal;HPM_P1;HPM_P2
2022/01/08 04:30:14;;;;;;;2.05;1.95;;;;;;;7.60;57.86;97937.38;8339986;23;21367;31
2022/01/08 04:33:37;;;;;;;2.20;2.00;;;;;;;7.82;57.71;97949.50;6718036;29;20464;-85
2022/01/08 04:36:58;;;;;;;2.83;2.07;;;;;;;7.85;56.60;97933.00;6707000;29;20727;-85
2022/01/08 04:40:20;;;;;;;4.37;2.10;;;;;;;8.13;56.39;97950.47;6705800;29;20254;-86
2022/01/08 05:13:26;;;;;;;2.60;2.00;;;;;;;7.24;59.15;97943.13;6703947;29;20696;-86
2022/01/08 05:16:55;;;;;;;1.97;1.87;;;;;;;7.49;59.83;98000.47;6707023;29;20220;-87
2022/01/08 05:20:17;;;;;;;3.27;2.10;;;;;;;7.68;59.68;98034.56;6718359;29;20364;-84
2022/01/08 05:23:39;;;;;;;2.40;2.10;;;;;;;7.70;58.97;98008.34;6781014;29;20228;-86
2022/01/08 05:27:05;;;;;;;3.20;2.90;;;;;;;7.57;60.42;98028.94;6851454;29;20293;-85
2022/01/08 05:30:28;;;;;;;2.43;2.27;;;;;;;7.51;60.47;98030.59;6848572;29;20266;-87
2022/01/08 05:33:51;;;;;;;2.20;2.10;;;;;;;7.69;59.65;98038.88;6851834;29;20325;-87
2022/01/08 05:37:13;;;;;;;2.20;2.10;;;;;;;7.54;60.73;98053.53;6849124;29;20232;-88
2022/01/08 05:40:39;;;;;;;2.90;2.10;;;;;;;7.57;60.65;98058.47;6849331;29;20210;-86
2022/01/08 05:48:02;;;;;;;2.60;2.40;;;;;;;6.80;61.22;98020.53;6797169;28;20205;-86
2022/01/08 05:51:23;;;;;;;1.93;1.83;;;;;;;6.66;62.65;98082.28;6847053;29;20203;-85
2022/01/08 05:54:45;;;;;;;2.10;2.00;;;;;;;7.06;62.36;98090.28;6845710;29;20327;-87
2022/01/08 05:58:07;;;;;;;2.20;2.10;;;;;;;6.76;62.73;98088.09;6850713;29;20238;-84
2022/01/08 06:01:30;;;;;;;2.63;2.43;;;;;;;7.11;62.22;98120.00;6849903;29;20212;-83
2022/01/08 06:04:51;;;;;;;3.03;2.80;;;;;;;6.77;63.24;98138.78;6851366;29;20236;-89
2022/01/08 06:08:13;;;;;;;2.20;2.10;;;;;;;6.91;63.18;98131.66;6851824;28;20210;-88
2022/01/08 06:11:37;;;;;;;2.43;2.33;;;;;;;6.57;63.74;98111.06;6857429;29;20222;-85
2022/01/08 06:15:14;;;;;;;2.30;2.20;;;;;;;6.63;64.34;98158.50;6856349;29;20238;-88
2022/01/08 06:35:28;;;;;;;2.00;1.90;;;;;;;6.09;63.63;98229.69;6721650;29;20228;-86
2022/01/08 06:47:34;;;;;;;2.33;2.23;;;;;;;5.45;65.32;98200.34;6669493;29;20221;-88
2022/01/08 06:50:57;;;;;;;2.20;2.10;;;;;;;6.16;63.97;98292.16;6723546;29;20219;-89
2022/01/08 07:06:54;;;;;;;2.50;2.30;;;;;;;6.32;63.27;98353.44;6718869;29;20231;-88
2022/01/08 07:14:13;;;;;;;2.20;2.10;;;;;;;5.65;64.67;98392.09;6853184;29;20238;-84
2022/01/08 07:21:46;;;;;;;2.20;2.10;;;;;;;6.73;62.09;98401.91;6778228;29;20246;-87
2022/01/08 07:29:37;;;;;;;2.60;2.40;;;;;;;5.99;63.09;98424.50;6857833;29;20673;-86
2022/01/08 07:32:59;;;;;;;2.73;2.53;;;;;;;6.09;62.99;98443.78;6857680;29;20226;-86
2022/01/08 07:40:51;;;;;;;3.03;2.80;;;;;;;6.39;61.01;98463.31;6803887;29;20207;-86
2022/01/08 07:44:13;;;;;;;4.90;3.63;;;;;;;6.15;63.04;98464.44;6828589;29;20287;-85
2022/01/08 07:47:34;;;;;;;4.00;3.70;;;;;;;6.40;62.23;98459.59;6827361;29;20201;-87
2022/01/08 07:50:59;;;;;;;6.97;4.43;;;;;;;6.59;61.61;98459.00;6827549;29;20219;-87
2022/01/08 07:54:21;;;;;;;8.27;5.13;;;;;;;6.93;61.16;98500.22;6827947;29;20231;-86
2022/01/08 07:57:44;;;;;;;10.70;6.10;;;;;;;7.17;60.29;98507.91;6830368;29;20735;-86
2022/01/08 08:05:33;;;;;;;4.83;3.80;;;;;;;7.16;60.73;98484.81;6859375;29;20220;-85
2022/01/08 08:08:55;;;;;;;5.07;4.00;;;;;;;7.63;59.86;98548.56;6856326;29;20346;-88
2022/01/08 08:12:17;;;;;;;7.17;4.60;;;;;;;7.73;59.74;98555.25;6857679;29;20242;-86
2022/01/08 08:55:50;;;;;;;;;;;;;;;;;;;;;
2022/01/08 08:59:19;;;;;;;3.23;2.80;;;;;;;8.01;55.73;98623.22;6508963;30;20243;-88
2022/01/08 09:02:46;;;;;;;3.40;3.10;;;;;;;7.46;56.55;98587.38;6561993;30;20617;-87
2022/01/08 09:06:08;;;;;;;7.73;4.37;;;;;;;8.14;56.49;98650.19;6621600;29;20220;-88
2022/01/08 09:09:32;;;;;;;11.83;5.63;;;;;;;7.79;55.96;98601.97;6622467;30;20216;-87
2022/01/08 09:13:01;;;;;;;4.53;3.07;;;;;;;7.62;56.41;98616.66;6622206;29;20250;-86
2022/01/08 09:16:24;;;;;;;5.73;2.97;;;;;;;7.88;55.52;98666.06;6614925;29;20703;-88
2022/01/08 09:19:48;;;;;;;3.63;3.33;;;;;;;7.60;55.36;98658.97;6616931;29;20233;-86
2022/01/08 09:23:10;;;;;;;4.47;3.67;;;;;;;8.11;55.70;98669.38;6614876;29;20232;-85
2022/01/08 09:26:35;;;;;;;6.43;3.60;;;;;;;8.27;54.44;98671.84;6662736;29;20219;-84
2022/01/08 09:30:02;;;;;;;4.60;3.57;;;;;;;8.23;54.33;98642.84;6719215;29;20213;-88
2022/01/08 09:33:25;;;;;;;4.40;2.90;;;;;;;8.05;53.63;98662.09;6719347;29;20229;-85
2022/01/08 09:36:47;;;;;;;3.60;2.87;;;;;;;7.54;54.63;98651.66;6823345;29;20223;-85
2022/01/08 09:40:11;;;;;;;8.43;3.50;;;;;;;7.80;53.90;98670.72;6823921;29;20233;-85
2022/01/08 09:43:52;;;;;;;5.13;3.10;;;;;;;6.88;55.98;98612.50;6824957;29;20244;-87
2022/01/08 09:47:14;;;;;;;6.13;2.80;;;;;;;7.93;54.05;98692.31;6824890;29;20210;-86
2022/01/08 09:50:37;;;;;;;5.43;2.50;;;;;;;7.97;55.13;98683.72;6823737;29;20208;-83
2022/01/08 09:53:59;;;;;;;6.17;2.63;;;;;;;7.68;53.71;98648.09;6824121;29;20235;-86
2022/01/08 09:57:20;;;;;;;5.97;2.43;;;;;;;7.79;53.08;98698.59;6824059;29;20208;-82
2022/01/08 10:00:45;;;;;;;2.50;2.30;;;;;;;7.99;53.94;98694.25;6845026;29;20233;-87
2022/01/08 10:04:10;;;;;;;3.63;2.60;;;;;;;8.85;51.36;98692.13;6849206;29;20221;-86
2022/01/08 10:07:33;;;;;;;2.60;2.40;;;;;;;7.70;52.03;98660.31;6849560;29;20218;-83
2022/01/08 10:24:31;;;;;;;3.67;3.13;;;;;;;8.28;50.87;98640.41;6840596;29;20209;-82
2022/01/08 10:27:53;;;;;;;4.80;3.70;;;;;;;8.25;50.09;98665.00;6838443;29;20303;-85
2022/01/08 10:31:23;;;;;;;7.00;5.70;;;;;;;8.34;49.86;98698.72;6843083;29;20209;-86
2022/01/08 10:34:49;;;;;;;8.07;5.27;;;;;;;7.73;49.64;98702.84;6840735;29;20231;-82
2022/01/08 10:38:10;;;;;;;5.57;3.20;;;;;;;8.29;49.28;98691.25;6840528;29;20252;-82
2022/01/08 10:41:37;;;;;;;7.47;4.30;;;;;;;7.62;49.80;98665.81;6844487;29;20242;-82
2022/01/08 10:44:59;;;;;;;6.60;5.27;;;;;;;7.87;49.98;98698.44;6836729;29;20721;-84
2022/01/08 11:18:17;;;;;;;4.87;2.63;;;;;;;7.45;48.23;98706.44;6832781;29;20198;-84
2022/01/08 11:21:38;;;;;;;2.53;2.27;;;;;;;6.91;47.49;98692.53;6822231;29;20220;-86
2022/01/08 11:25:10;;;;;;;3.00;2.70;;;;;;;7.02;47.77;98700.09;6829663;29;20241;-85
2022/01/08 11:28:34;;;;;;;4.63;2.70;;;;;;;7.71;46.73;98680.75;6856638;29;20233;-84
2022/01/08 11:32:02;;;;;;;3.80;2.90;;;;;;;8.09;46.62;98658.00;6860518;29;20211;-84
2022/01/08 11:35:25;;;;;;;4.90;2.70;;;;;;;8.55;46.51;98656.53;6856472;28;20258;-87
2022/01/08 11:38:47;;;;;;;5.47;3.10;;;;;;;8.66;45.96;98671.31;6842071;29;20230;-85
2022/01/08 11:42:09;;;;;;;3.30;3.00;;;;;;;9.04;43.58;98608.88;6849380;29;20223;-85
2022/01/08 11:45:33;;;;;;;2.50;2.30;;;;;;;9.19;43.83;98648.03;6848034;29;20226;-84
2022/01/08 11:48:56;;;;;;;6.23;2.70;;;;;;;9.19;42.82;98612.25;6847764;29;20211;-85
2022/01/08 11:52:21;;;;;;;2.93;2.40;;;;;;;8.48;44.09;98619.94;6850577;29;20220;-84
2022/01/08 11:55:44;;;;;;;4.80;3.10;;;;;;;8.12;45.25;98640.66;6850144;29;20230;-84
2022/01/08 11:59:07;;;;;;;2.83;2.20;;;;;;;8.52;44.53;98627.38;6848594;29;20240;-83
2022/01/08 12:02:39;;;;;;;3.73;2.30;;;;;;;8.39;45.02;98556.63;6848494;29;20219;-83
2022/01/08 12:06:38;;;;;;;6.97;2.83;;;;;;;8.98;44.71;98631.19;6848915;28;20202;-84
2022/01/08 12:10:19;;;;;;;6.00;2.53;;;;;;;9.02;44.45;98619.81;6847616;29;20219;-86
2022/01/08 12:13:44;;;;;;;4.03;2.43;;;;;;;8.65;44.83;98579.09;6846428;29;20231;-84
2022/01/08 12:17:13;;;;;;;3.43;2.50;;;;;;;9.45;43.65;98617.72;6847091;29;20680;-85
2022/01/08 12:20:43;;;;;;;5.53;2.30;;;;;;;8.97;44.40;98553.41;6848220;29;20678;-83
2022/01/08 12:24:55;;;;;;;4.70;2.63;;;;;;;9.08;44.13;98610.13;6849391;29;20232;-83
2022/01/08 12:28:58;;;;;;;2.33;2.13;;;;;;;8.92;44.57;98591.66;6849461;29;20719;-83
2022/01/08 12:32:45;;;;;;;6.23;2.27;;;;;;;8.70;44.76;98591.94;6846301;29;20211;-83
2022/01/08 12:36:25;;;;;;;3.20;2.70;;;;;;;8.87;45.55;98586.03;6843146;29;20202;-86
2022/01/08 12:39:55;;;;;;;10.30;4.47;;;;;;;8.54;45.49;98582.34;6850445;29;20244;-84
2022/01/08 12:43:29;;;;;;;5.33;3.63;;;;;;;8.71;46.15;98564.88;6849808;29;20714;-85
2022/01/08 12:46:52;;;;;;;2.90;2.37;;;;;;;9.23;43.96;98557.03;6849858;29;20263;-84
2022/01/08 12:50:19;;;;;;;3.63;2.20;;;;;;;9.12;45.08;98562.97;6849354;29;20294;-84
2022/01/08 12:53:41;;;;;;;3.53;2.37;;;;;;;9.77;43.78;98560.44;6848405;29;20232;-84
2022/01/08 12:57:05;;;;;;;2.30;2.20;;;;;;;9.58;43.55;98555.84;6848374;29;20212;-84
2022/01/08 13:00:27;;;;;;;2.43;2.23;;;;;;;9.68;44.12;98500.56;6846129;28;20330;-83
2022/01/08 13:03:52;;;;;;;2.97;2.67;;;;;;;10.13;43.19;98515.09;6842495;29;20237;-84
2022/01/08 13:07:13;;;;;;;4.27;2.37;;;;;;;10.81;41.11;98528.00;6839732;29;20271;-84
2022/01/08 13:10:35;;;;;;;3.33;2.93;;;;;;;10.63;41.38;98515.19;6844700;29;20361;-80
2022/01/08 13:14:07;;;;;;;4.07;2.10;;;;;;;9.03;42.95;98427.06;6844688;29;20237;-85
2022/01/08 13:17:29;;;;;;;3.83;1.93;;;;;;;9.94;43.40;98505.13;6843188;28;20206;-80
2022/01/08 13:21:02;;;;;;;2.30;2.10;;;;;;;10.03;42.92;98501.22;6837178;29;20361;-81
2022/01/08 13:24:25;;;;;;;2.40;2.20;;;;;;;9.69;42.64;98471.81;6842104;29;20233;-81
2022/01/08 13:27:49;;;;;;;4.10;2.13;;;;;;;10.69;40.82;98475.75;6834272;29;20217;-82
2022/01/08 13:31:11;;;;;;;2.73;2.00;;;;;;;10.42;40.98;98456.16;6837959;29;20268;-82
2022/01/08 13:34:34;;;;;;;2.80;2.20;;;;;;;9.97;41.50;98430.13;6841547;29;20226;-82
2022/01/08 13:37:57;;;;;;;4.10;2.63;;;;;;;9.97;41.30;98437.38;6827300;29;20211;-80
2022/01/08 13:41:19;;;;;;;5.30;3.23;;;;;;;9.37;42.58;98419.63;6817673;29;20237;-80
2022/01/08 13:44:42;;;;;;;3.33;2.03;;;;;;;9.26;42.81;98425.63;6813126;29;20728;-83
2022/01/08 13:48:08;;;;;;;2.63;2.23;;;;;;;9.60;41.67;98422.75;6813174;29;20213;-83
2022/01/08 13:51:32;;;;;;;2.27;2.13;;;;;;;9.81;42.04;98429.75;6816684;29;20205;-83
2022/01/08 13:55:11;;;;;;;3.73;2.00;;;;;;;9.68;41.65;98405.56;6815307;29;20241;-84
2022/01/08 13:58:34;;;;;;;4.37;3.97;;;;;;;9.09;43.42;98410.13;6820099;29;20584;-84
2022/01/08 14:01:58;;;;;;;3.90;2.50;;;;;;;9.20;42.65;98390.66;6822593;29;20680;-87
2022/01/08 14:05:20;;;;;;;3.83;2.50;;;;;;;8.81;43.64;98389.78;6822366;29;20720;-84
2022/01/08 14:08:52;;;;;;;5.03;2.50;;;;;;;8.99;43.32;98378.22;6821191;29;20206;-84
2022/01/08 14:12:16;;;;;;;5.80;3.40;;;;;;;9.01;43.30;98328.81;6824204;29;20207;-84
2022/01/08 14:16:00;;;;;;;4.33;2.70;;;;;;;9.13;43.57;98336.03;6845674;29;20222;-84
2022/01/08 14:19:22;;;;;;;4.93;3.50;;;;;;;9.15;43.65;98344.75;6839648;29;20721;-83
2022/01/08 14:22:43;;;;;;;2.77;2.57;;;;;;;9.23;43.51;98342.69;6844115;29;20213;-83
2022/01/08 14:26:13;;;;;;;7.77;4.87;;;;;;;9.13;44.18;98335.22;6843766;29;20476;-84
2022/01/08 14:29:45;;;;;;;4.90;3.63;;;;;;;9.59;43.06;98320.69;6850246;28;20221;-84
2022/01/08 14:33:09;;;;;;;2.90;2.60;;;;;;;9.64;43.38;98316.31;6852848;29;20228;-84
2022/01/08 14:37:08;;;;;;;6.37;2.70;;;;;;;9.45;43.11;98311.00;6849846;29;20209;-85
2022/01/08 14:40:32;;;;;;;2.53;2.33;;;;;;;9.26;43.17;98288.44;6828605;29;20246;-86
2022/01/08 14:43:59;;;;;;;3.50;2.40;;;;;;;9.17;42.51;98273.56;6849578;29;20227;-84
2022/01/08 14:47:35;;;;;;;5.73;2.63;;;;;;;8.59;44.16;98259.31;6852533;29;20201;-82
2022/01/08 14:50:57;;;;;;;2.70;2.50;;;;;;;8.80;44.51;98249.22;6855340;28;20292;-84
2022/01/08 14:54:25;;;;;;;4.47;2.73;;;;;;;7.78;46.96;98271.06;6853273;29;20228;-85
2022/01/08 14:58:15;;;;;;;3.37;2.43;;;;;;;8.44;45.95;98277.50;6854342;29;20222;-84
2022/01/08 15:01:37;;;;;;;2.70;2.50;;;;;;;8.28;46.15;98265.28;6862360;28;20228;-84
2022/01/08 15:05:03;;;;;;;3.03;2.43;;;;;;;8.45;45.36;98271.94;6844373;29;20226;-89
2022/01/08 15:08:26;;;;;;;3.17;2.50;;;;;;;9.16;43.58;98260.34;6841493;28;20213;-84
2022/01/08 15:11:47;;;;;;;3.40;2.60;;;;;;;8.72;45.30;98211.78;6839828;28;20205;-85
2022/01/08 15:15:13;;;;;;;3.53;2.90;;;;;;;9.10;46.09;98239.66;6851762;29;20292;-86
2022/01/08 15:18:48;;;;;;;4.20;2.60;;;;;;;9.35;45.51;98254.94;6846445;29;21252;-84
2022/01/08 15:22:11;;;;;;;7.20;3.10;;;;;;;9.34;45.44;98239.00;6847826;29;20258;-85
2022/01/08 15:25:34;;;;;;;3.70;3.00;;;;;;;9.15;46.27;98239.88;6829387;29;20260;-87
2022/01/08 15:28:56;;;;;;;3.80;3.40;;;;;;;9.03;46.82;98233.47;6833245;29;20206;-84
2022/01/08 15:32:18;;;;;;;5.40;3.80;;;;;;;8.87;46.10;98216.94;6848776;29;20213;-83
2022/01/08 15:35:40;;;;;;;8.97;4.43;;;;;;;8.27;47.86;98190.28;6847611;29;20236;-82
2022/01/08 15:39:07;;;;;;;5.13;4.23;;;;;;;8.42;47.27;98196.31;6851278;28;20200;-83
2022/01/08 15:42:29;;;;;;;4.50;4.03;;;;;;;8.87;47.14;98219.63;6851177;29;20217;-84
2022/01/08 15:45:50;;;;;;;5.97;4.20;;;;;;;8.66;48.29;98209.91;6850867;29;20234;-86
2022/01/08 15:49:13;;;;;;;8.50;5.57;;;;;;;8.05;50.05;98207.56;6840493;29;20207;-85
2022/01/08 15:52:35;;;;;;;10.67;5.10;;;;;;;8.21;50.12;98220.63;6849477;29;20661;-84
2022/01/08 15:55:58;;;;;;;3.93;3.17;;;;;;;7.48;49.46;98186.56;6846744;29;20209;-86
2022/01/08 15:59:19;;;;;;;5.47;2.93;;;;;;;8.21;47.54;98197.31;6849432;28;20590;-85
2022/01/08 16:02:41;;;;;;;4.00;3.00;;;;;;;8.27;46.78;98145.47;6850504;29;20207;-87
2022/01/08 16:06:03;;;;;;;7.03;5.73;;;;;;;8.55;49.51;98164.88;6848042;29;20684;-85
2022/01/08 16:09:25;;;;;;;8.80;6.43;;;;;;;8.30;50.04;98165.72;6852853;29;20236;-86
2022/01/08 16:12:48;;;;;;;8.37;5.80;;;;;;;8.58;48.80;98142.97;6848556;29;20217;-88
2022/01/08 16:16:10;;;;;;;20.20;9.87;;;;;;;8.02;49.41;98060.34;6844827;29;20217;-85
2022/01/08 16:19:32;;;;;;;10.07;5.87;;;;;;;8.74;47.99;98142.53;6824243;29;20232;-87
2022/01/08 16:22:53;;;;;;;8.20;5.23;;;;;;;8.75;47.02;98106.56;6838335;29;20215;-87
2022/01/08 16:26:15;;;;;;;3.50;3.03;;;;;;;8.81;45.08;98099.50;6839801;29;20237;-87
2022/01/08 16:29:38;;;;;;;4.70;3.87;;;;;;;8.64;45.30;98063.38;6840617;29;20221;-87
2022/01/08 16:33:00;;;;;;;4.73;3.10;;;;;;;8.88;44.15;98085.03;6839891;29;20237;-87
2022/01/08 16:36:23;;;;;;;3.10;2.80;;;;;;;8.57;44.16;98068.78;6839673;29;20219;-87
2022/01/08 16:39:45;;;;;;;5.63;3.77;;;;;;;8.62;43.74;98062.78;6846897;29;20231;-87
2022/01/08 16:43:07;;;;;;;10.00;5.17;;;;;;;8.74;43.97;98051.16;6842779;29;20244;-82
2022/01/08 16:46:38;;;;;;;14.23;6.63;;;;;;;8.88;43.63;98036.63;6842791;29;20210;-87
2022/01/08 16:50:01;;;;;;;13.23;7.43;;;;;;;8.70;44.45;98027.59;6851504;29;20326;-85
2022/01/08 16:53:38;;;;;;;32.67;16.60;;;;;;;8.66;44.83;97986.09;6850447;28;20230;-84
2022/01/08 16:57:05;;;;;;;97.57;40.93;;;;;;;8.84;45.36;98005.84;6848540;29;20206;-88
2022/01/08 17:00:27;;;;;;;3.33;2.80;;;;;;;8.78;42.66;97963.69;6845074;29;20224;-87
2022/01/08 17:03:52;;;;;;;4.40;2.90;;;;;;;8.91;42.40;97970.88;6842509;29;20228;-86
2022/01/08 17:07:14;;;;;;;3.30;2.17;;;;;;;8.47;43.01;97987.81;6848778;29;20195;-88
2022/01/08 17:10:35;;;;;;;4.67;2.30;;;;;;;8.40;43.60;97962.00;6848914;29;20205;-87
2022/01/08 17:13:57;;;;;;;3.40;2.40;;;;;;;8.46;43.56;97967.34;6849219;29;20230;-85
2022/01/08 17:17:19;;;;;;;2.83;2.57;;;;;;;8.16;43.38;97949.22;6847178;29;20205;-85
2022/01/08 17:20:42;;;;;;;4.33;2.50;;;;;;;8.33;43.69;97943.22;6849036;29;20754;-83
2022/01/08 17:24:08;;;;;;;4.77;3.13;;;;;;;8.12;44.25;97948.81;6839928;29;20224;-84
2022/01/08 17:27:38;;;;;;;4.17;3.77;;;;;;;8.22;44.47;97933.16;6822217;29;20215;-85
2022/01/08 17:31:00;;;;;;;4.53;3.90;;;;;;;8.66;42.91;97932.34;6825730;29;20209;-87
2022/01/08 17:34:22;;;;;;;9.97;5.93;;;;;;;8.32;44.22;97938.88;6823643;29;20243;-87
2022/01/08 17:37:45;;;;;;;13.53;9.50;;;;;;;8.57;43.71;97947.06;6822913;29;20199;-87
2022/01/08 17:41:07;;;;;;;3.63;3.03;;;;;;;8.58;43.09;97943.31;6821833;29;20226;-84
2022/01/08 17:44:29;;;;;;;4.73;2.97;;;;;;;8.08;43.79;97930.66;6818393;29;20246;-85
2022/01/08 17:47:51;;;;;;;19.30;10.80;;;;;;;8.61;43.63;97932.16;6817655;29;20244;-84
2022/01/08 17:51:14;;;;;;;6.53;4.90;;;;;;;8.66;43.79;97927.78;6819730;29;20196;-84
2022/01/08 17:54:43;;;;;;;9.30;8.40;;;;;;;9.00;43.62;97916.63;6819704;29;20753;-83
2022/01/08 17:58:05;;;;;;;4.87;3.67;;;;;;;9.14;42.65;97907.44;6818047;29;20206;-85
2022/01/08 18:01:27;;;;;;;3.47;3.07;;;;;;;9.43;42.75;97902.25;6816697;29;20228;-84
2022/01/08 18:04:49;;;;;;;5.63;4.20;;;;;;;8.83;43.56;97906.63;6836509;29;20224;-84
2022/01/08 18:08:27;;;;;;;4.17;2.73;;;;;;;8.09;44.79;97889.38;6851963;29;20214;-85
2022/01/08 18:12:06;;;;;;;4.80;4.13;;;;;;;7.05;47.37;97807.25;6851059;29;20212;-84
2022/01/08 18:15:31;;;;;;;5.40;4.27;;;;;;;7.64;47.27;97793.72;6852529;29;20222;-85
2022/01/08 18:19:19;;;;;;;4.30;3.07;;;;;;;7.92;46.92;97846.06;6851393;29;20208;-85
2022/01/08 18:22:41;;;;;;;3.07;2.57;;;;;;;8.21;46.68;97824.09;6848038;29;20241;-85
2022/01/08 18:26:03;;;;;;;3.40;2.80;;;;;;;8.37;45.69;97836.22;6854038;29;20208;-86
2022/01/08 18:29:26;;;;;;;2.77;2.57;;;;;;;7.70;45.51;97750.81;6845451;29;20207;-87
2022/01/08 18:32:48;;;;;;;3.63;3.07;;;;;;;7.78;46.49;97808.75;6849057;29;20215;-84
2022/01/08 18:36:10;;;;;;;3.03;2.83;;;;;;;8.39;46.09;97793.84;6853441;29;20216;-86
2022/01/08 18:39:33;;;;;;;3.03;2.83;;;;;;;7.80;46.56;97788.75;6853890;29;20220;-86
2022/01/08 18:43:04;;;;;;;2.93;2.73;;;;;;;7.77;46.42;97735.50;6853141;29;20225;-85
2022/01/08 18:46:28;;;;;;;3.50;2.83;;;;;;;8.02;46.23;97776.66;6853020;29;20216;-85
2022/01/08 18:49:51;;;;;;;4.00;3.33;;;;;;;7.91;45.82;97766.59;6852069;29;20222;-84
2022/01/08 18:53:12;;;;;;;5.17;2.80;;;;;;;6.81;48.67;97764.19;6854558;28;20233;-85
2022/01/08 18:56:34;;;;;;;7.97;5.63;;;;;;;7.47;48.30;97741.59;6838552;28;20692;-87
2022/01/08 18:59:56;;;;;;;8.23;5.73;;;;;;;7.67;46.79;97702.13;6847056;29;20211;-86
2022/01/08 19:03:19;;;;;;;4.07;3.73;;;;;;;7.86;47.21;97728.84;6843807;29;20588;-88
2022/01/08 19:06:47;;;;;;;3.70;3.40;;;;;;;8.01;46.86;97694.50;6848475;29;20214;-85
2022/01/08 19:10:09;;;;;;;3.60;3.30;;;;;;;7.98;47.64;97708.34;6850936;29;20227;-84
2022/01/08 19:13:32;;;;;;;3.80;3.40;;;;;;;8.10;47.22;97687.84;6852013;29;20239;-86
2022/01/08 19:16:54;;;;;;;3.87;3.53;;;;;;;7.83;46.62;97627.31;6849951;28;20209;-86
2022/01/08 19:20:17;;;;;;;4.53;4.10;;;;;;;7.90;47.52;97664.84;6841207;29;20251;-87
2022/01/08 19:23:39;;;;;;;3.63;3.20;;;;;;;7.50;48.77;97652.69;6841313;29;20222;-87
2022/01/08 19:27:03;;;;;;;4.77;3.87;;;;;;;7.37;48.73;97647.38;6844474;29;20217;-86
2022/01/08 19:30:25;;;;;;;4.27;3.87;;;;;;;7.16;48.48;97591.38;6845759;29;20204;-86
2022/01/08 19:33:47;;;;;;;3.97;2.90;;;;;;;7.22;48.83;97631.56;6853166;29;20223;-86
2022/01/08 19:37:19;;;;;;;5.47;3.40;;;;;;;6.48;49.68;97551.88;6854049;29;20213;-83
2022/01/08 19:40:42;;;;;;;5.87;4.00;;;;;;;7.18;49.43;97608.09;6854263;29;20606;-85
2022/01/08 19:44:05;;;;;;;4.77;3.70;;;;;;;7.29;49.18;97592.16;6850972;29;20243;-85
2022/01/08 19:47:27;;;;;;;3.43;3.13;;;;;;;7.20;48.12;97539.81;6848505;29;20225;-86
2022/01/08 19:50:52;;;;;;;4.40;4.00;;;;;;;7.42;47.80;97576.00;6852126;29;20208;-84
2022/01/08 19:54:15;;;;;;;5.20;3.77;;;;;;;7.13;48.17;97547.06;6852470;29;20229;-85
2022/01/08 19:57:37;;;;;;;5.27;3.60;;;;;;;6.62;50.08;97538.22;6853023;29;20703;-87
2022/01/08 20:01:00;;;;;;;4.23;3.47;;;;;;;7.06;49.88;97537.41;6852553;29;20246;-85
2022/01/08 20:04:21;;;;;;;5.00;3.13;;;;;;;7.56;47.93;97539.19;6851156;29;20723;-88
2022/01/08 20:07:44;;;;;;;3.33;3.03;;;;;;;7.83;46.92;97505.78;6850793;29;20212;-85
2022/01/08 20:11:07;;;;;;;3.20;2.90;;;;;;;7.71;47.96;97519.06;6850316;29;20224;-85
2022/01/08 20:14:30;;;;;;;4.23;3.03;;;;;;;8.23;46.71;97482.91;6847486;29;20893;-85
2022/01/08 20:17:52;;;;;;;3.37;2.60;;;;;;;8.21;46.46;97466.22;6849042;29;20278;-85
2022/01/08 20:21:14;;;;;;;2.57;2.37;;;;;;;8.12;46.84;97481.75;6851318;29;20232;-86
2022/01/08 20:24:36;;;;;;;3.60;2.70;;;;;;;7.83;48.09;97481.63;6851214;29;20236;-85
2022/01/08 20:27:59;;;;;;;3.23;2.67;;;;;;;8.08;48.17;97477.84;6852116;28;20216;-86
2022/01/08 20:31:21;;;;;;;2.90;2.70;;;;;;;7.81;48.04;97443.44;6852073;29;20674;-84
2022/01/08 20:34:43;;;;;;;3.13;2.67;;;;;;;8.15;48.69;97449.09;6850446;29;20239;-87
2022/01/08 20:38:05;;;;;;;3.20;2.90;;;;;;;8.64;47.15;97434.72;6846141;29;20795;-87
2022/01/08 20:41:27;;;;;;;2.87;2.50;;;;;;;8.34;46.72;97339.88;6841534;29;20237;-87
2022/01/08 20:44:50;;;;;;;33.17;16.83;;;;;;;8.46;47.28;97376.47;6841731;29;20729;-86
2022/01/08 20:48:12;;;;;;;19.57;12.70;;;;;;;8.35;47.87;97358.44;6842628;29;20214;-86
2022/01/08 20:51:33;;;;;;;7.00;5.37;;;;;;;8.67;47.84;97383.22;6842826;28;20193;-88
2022/01/08 20:54:55;;;;;;;3.47;3.07;;;;;;;8.76;46.95;97341.53;6842785;29;20234;-86
2022/01/08 20:58:16;;;;;;;3.93;3.30;;;;;;;8.67;47.33;97322.25;6843663;29;20206;-86
2022/01/08 21:01:39;;;;;;;3.50;3.10;;;;;;;9.13;46.32;97315.13;6841830;29;20248;-84
2022/01/08 21:05:01;;;;;;;2.80;2.40;;;;;;;8.28;47.58;97233.38;6839295;29;20235;-86
2022/01/08 21:08:23;;;;;;;5.30;2.80;;;;;;;8.88;47.26;97267.16;6839876;29;20214;-85
2022/01/08 21:11:45;;;;;;;3.80;2.70;;;;;;;9.27;47.47;97294.22;6843768;28;20220;-86
2022/01/08 21:15:10;;;;;;;3.20;2.83;;;;;;;9.31;46.92;97263.09;6843415;29;20326;-85
2022/01/08 21:18:33;;;;;;;5.33;2.63;;;;;;;9.19;47.46;97246.13;6838782;29;20380;-84
2022/01/08 21:21:55;;;;;;;3.40;3.10;;;;;;;9.38;47.25;97258.41;6846275;29;20234;-85
2022/01/08 21:25:16;;;;;;;3.80;3.50;;;;;;;8.79;48.29;97242.47;6848213;29;20295;-84
2022/01/08 21:28:38;;;;;;;3.80;3.20;;;;;;;8.61;49.56;97223.78;6849368;29;20209;-85
2022/01/08 21:32:00;;;;;;;3.57;2.40;;;;;;;8.45;48.68;97176.13;6848261;29;20208;-87
2022/01/08 21:35:28;;;;;;;2.70;2.50;;;;;;;8.06;50.98;97203.53;6850277;29;20272;-85
2022/01/08 21:38:54;;;;;;;2.60;2.40;;;;;;;7.63;52.02;97159.97;6849769;28;20218;-84
2022/01/08 21:42:17;;;;;;;2.73;2.40;;;;;;;7.91;51.49;97187.00;6850844;29;20754;-84
2022/01/08 21:45:39;;;;;;;3.53;2.53;;;;;;;8.10;51.42;97166.31;6843311;29;20266;-83
2022/01/08 21:49:01;;;;;;;2.70;2.50;;;;;;;7.96;50.53;97084.38;6842254;29;20224;-82
2022/01/08 21:52:24;;;;;;;2.50;2.33;;;;;;;8.43;50.54;97145.97;6839424;29;20939;-84
2022/01/08 21:55:46;;;;;;;2.93;2.63;;;;;;;8.09;50.41;97076.94;6841415;29;20236;-83
2022/01/08 21:59:10;;;;;;;2.43;2.20;;;;;;;8.77;49.52;97115.63;6842819;29;20216;-83
